Time;durP1;ratioP1;P1;durP2;ratioP2;P2;SDS_P1;SDS_P2;PMS_P1;PMS_P2;Temp;Humidity;BMP_temperature;BMP_pressure;BME280_temperature;BME280_humidity;BME280_pressure;Samples;Min_cycle;Max_cycle;Signal;HPM_P1;HPM_P2
2024/02/18 00:01:35;;;;;;;7.75;4.65;;;9.20;99.90;;;;;;5067792;28;20385;-75
2024/02/18 00:04:01;;;;;;;9.43;4.53;;;9.20;99.90;;;;;;5052958;28;20029;-75
2024/02/18 00:06:27;;;;;;;7.35;4.72;;;9.30;99.90;;;;;;5052094;28;20031;-75
2024/02/18 00:08:53;;;;;;;8.10;4.80;;;9.30;99.90;;;;;;5052822;28;20464;-75
2024/02/18 00:11:18;;;;;;;6.30;3.72;;;9.20;99.90;;;;;;5050891;28;20032;-75
2024/02/18 00:13:44;;;;;;;6.47;4.10;;;9.20;99.90;;;;;;5050843;28;20028;-75
2024/02/18 00:16:10;;;;;;;8.32;4.53;;;9.20;99.90;;;;;;5052937;28;20447;-75
2024/02/18 00:18:36;;;;;;;7.70;4.35;;;9.20;99.90;;;;;;5051012;28;20517;-75
2024/02/18 00:21:02;;;;;;;7.05;3.95;;;9.30;99.90;;;;;;5052765;28;20492;-75
2024/02/18 00:23:28;;;;;;;9.85;4.90;;;9.20;99.90;;;;;;5067546;28;20035;-75
2024/02/18 00:25:54;;;;;;;8.15;4.93;;;9.20;99.90;;;;;;5052817;28;20170;-75
2024/02/18 00:28:20;;;;;;;7.75;4.47;;;9.30;99.90;;;;;;5051408;28;20025;-75
2024/02/18 00:30:50;;;;;;;8.82;4.15;;;9.30;99.90;;;;;;5052338;28;20033;-75
2024/02/18 00:33:17;;;;;;;7.15;4.53;;;9.30;99.90;;;;;;5051461;28;20028;-75
2024/02/18 00:35:42;;;;;;;7.95;4.88;;;9.30;99.90;;;;;;5052021;28;20029;-75
2024/02/18 00:38:08;;;;;;;9.05;4.38;;;9.30;99.90;;;;;;5052517;28;20032;-75
2024/02/18 00:40:34;;;;;;;7.00;4.63;;;9.20;99.90;;;;;;5050638;28;20024;-75
2024/02/18 00:42:59;;;;;;;6.07;3.78;;;9.20;99.90;;;;;;5050962;28;20053;-75
2024/02/18 00:45:25;;;;;;;9.93;4.68;;;9.20;99.90;;;;;;5050786;28;20478;-75
2024/02/18 00:47:51;;;;;;;16.48;6.25;;;9.30;99.90;;;;;;5051392;28;20083;-74
2024/02/18 00:50:16;;;;;;;10.05;5.47;;;9.20;99.90;;;;;;5052777;28;20116;-75
2024/02/18 00:52:42;;;;;;;10.45;4.80;;;9.20;99.90;;;;;;5050589;28;20409;-75
2024/02/18 00:55:08;;;;;;;8.73;4.78;;;9.20;99.90;;;;;;5052451;28;20099;-75
2024/02/18 00:57:34;;;;;;;7.80;4.20;;;9.10;99.90;;;;;;5050599;28;20068;-75
2024/02/18 01:00:00;;;;;;;10.38;4.75;;;9.10;99.90;;;;;;5051304;28;20443;-75
2024/02/18 01:02:29;;;;;;;7.55;4.50;;;9.10;99.90;;;;;;5067334;28;20378;-75
2024/02/18 01:04:58;;;;;;;7.75;4.90;;;9.10;99.90;;;;;;5051153;28;20362;-75
2024/02/18 01:07:23;;;;;;;8.90;4.68;;;9.10;99.90;;;;;;5051854;28;20021;-75
2024/02/18 01:09:52;;;;;;;7.15;4.65;;;9.00;99.90;;;;;;5052343;28;20493;-75
2024/02/18 01:12:17;;;;;;;7.10;4.85;;;9.00;99.90;;;;;;5052451;28;20036;-75
2024/02/18 01:14:43;;;;;;;10.45;4.53;;;9.10;99.90;;;;;;5051718;28;20309;-75
2024/02/18 01:17:09;;;;;;;7.95;4.50;;;9.00;99.90;;;;;;5051076;28;20116;-74
2024/02/18 01:19:36;;;;;;;6.63;4.43;;;9.00;99.90;;;;;;5051670;28;20458;-75
2024/02/18 01:22:02;;;;;;;6.40;4.07;;;9.00;99.90;;;;;;5052697;28;20026;-75
2024/02/18 01:24:27;;;;;;;6.68;4.53;;;9.00;99.90;;;;;;5055441;28;20033;-75
2024/02/18 01:26:53;;;;;;;7.40;4.30;;;9.00;99.90;;;;;;5054966;28;20450;-75
2024/02/18 01:29:18;;;;;;;7.72;4.38;;;9.00;99.90;;;;;;5056144;28;20029;-75
2024/02/18 01:31:44;;;;;;;8.48;4.45;;;8.90;99.90;;;;;;5055521;28;20468;-76
2024/02/18 01:34:09;;;;;;;7.82;4.30;;;8.90;99.90;;;;;;5054698;28;20481;-75
2024/02/18 01:36:35;;;;;;;7.70;4.53;;;8.90;99.90;;;;;;5054176;28;20033;-76
2024/02/18 01:39:01;;;;;;;8.32;4.13;;;8.90;99.90;;;;;;5055914;28;20043;-76
2024/02/18 01:41:27;;;;;;;5.70;4.15;;;8.90;99.90;;;;;;5054062;28;20056;-76
2024/02/18 01:43:52;;;;;;;10.50;4.38;;;8.90;99.90;;;;;;5056126;28;20127;-76
2024/02/18 01:46:18;;;;;;;7.50;4.25;;;8.90;99.90;;;;;;5054570;28;20029;-76
2024/02/18 01:48:44;;;;;;;6.32;4.38;;;8.80;99.90;;;;;;5054198;28;20477;-75
2024/02/18 01:51:10;;;;;;;8.88;4.47;;;8.80;99.90;;;;;;5054630;28;20025;-75
2024/02/18 01:53:37;;;;;;;10.07;4.63;;;8.80;99.90;;;;;;5055057;28;20031;-76
2024/02/18 01:56:03;;;;;;;6.90;4.15;;;8.80;99.90;;;;;;5071242;28;20029;-75
2024/02/18 01:58:30;;;;;;;8.50;4.55;;;8.80;99.90;;;;;;5070468;28;20379;-76
2024/02/18 02:00:57;;;;;;;9.38;4.40;;;8.70;99.90;;;;;;5070894;28;20025;-75
2024/02/18 02:03:23;;;;;;;7.03;4.30;;;8.80;99.90;;;;;;5070882;28;20111;-74
2024/02/18 02:05:50;;;;;;;7.45;4.20;;;8.70;99.90;;;;;;5053537;28;20053;-75
2024/02/18 02:08:17;;;;;;;9.75;4.35;;;8.80;99.90;;;;;;5055337;28;20043;-75
2024/02/18 02:10:43;;;;;;;8.15;4.65;;;8.80;99.90;;;;;;5053426;28;20033;-75
2024/02/18 02:13:09;;;;;;;7.18;4.40;;;8.80;99.90;;;;;;5053724;28;20104;-75
2024/02/18 02:15:35;;;;;;;8.40;4.45;;;8.80;99.90;;;;;;5053338;28;20609;-75
2024/02/18 02:18:00;;;;;;;7.43;4.15;;;8.70;99.90;;;;;;5055201;28;20017;-75
2024/02/18 02:20:27;;;;;;;8.68;4.47;;;8.70;99.90;;;;;;5053388;28;20152;-75
2024/02/18 02:22:53;;;;;;;6.97;3.97;;;8.80;99.90;;;;;;5053539;28;20359;-75
2024/02/18 02:25:18;;;;;;;6.28;4.70;;;8.80;99.90;;;;;;5053983;28;20116;-74
2024/02/18 02:27:48;;;;;;;10.85;4.68;;;8.80;99.90;;;;;;5053228;28;20056;-75
2024/02/18 02:30:14;;;;;;;10.00;4.82;;;8.70;99.90;;;;;;5054819;28;20051;-75
2024/02/18 02:32:40;;;;;;;10.27;4.55;;;8.80;99.90;;;;;;5054536;28;20033;-75
2024/02/18 02:35:06;;;;;;;7.40;4.80;;;8.80;99.90;;;;;;5054310;28;20104;-76
2024/02/18 02:37:33;;;;;;;8.23;4.72;;;8.70;99.90;;;;;;5052980;28;20494;-75
2024/02/18 02:39:59;;;;;;;7.22;4.30;;;8.70;99.90;;;;;;5053503;28;20041;-75
2024/02/18 02:42:24;;;;;;;8.27;4.95;;;8.70;99.90;;;;;;5053205;28;20128;-75
2024/02/18 02:44:50;;;;;;;8.65;4.82;;;8.70;99.90;;;;;;5052935;28;20037;-75
2024/02/18 02:47:16;;;;;;;8.02;4.55;;;8.70;99.90;;;;;;5054590;28;20028;-75
2024/02/18 02:49:41;;;;;;;7.78;4.80;;;8.80;99.90;;;;;;5052779;28;20025;-75
2024/02/18 02:52:07;;;;;;;9.50;4.35;;;8.80;99.90;;;;;;5053473;28;20078;-75
2024/02/18 02:54:32;;;;;;;8.27;5.05;;;8.80;99.90;;;;;;5052764;28;20095;-75
2024/02/18 02:56:58;;;;;;;11.40;5.00;;;8.70;99.90;;;;;;5054084;28;20466;-75
2024/02/18 02:59:24;;;;;;;7.90;4.90;;;8.80;99.90;;;;;;5054028;28;20044;-75
2024/02/18 03:01:50;;;;;;;11.85;4.82;;;8.80;99.90;;;;;;5052417;28;20347;-75
2024/02/18 03:04:16;;;;;;;7.47;4.80;;;8.70;99.90;;;;;;5053131;28;20033;-75
2024/02/18 03:06:41;;;;;;;10.10;4.50;;;8.80;99.90;;;;;;5052552;28;20031;-76
2024/02/18 03:09:07;;;;;;;8.15;4.93;;;8.80;99.90;;;;;;5053030;28;20456;-75
2024/02/18 03:11:33;;;;;;;8.38;5.25;;;8.80;99.90;;;;;;5052294;28;20032;-76
2024/02/18 03:13:58;;;;;;;8.77;4.93;;;8.70;99.90;;;;;;5053028;28;20469;-75
2024/02/18 03:16:24;;;;;;;10.02;5.53;;;8.70;99.90;;;;;;5053843;28;20432;-75
2024/02/18 03:18:49;;;;;;;9.75;5.68;;;8.70;99.90;;;;;;5052195;28;20029;-75
2024/02/18 03:21:15;;;;;;;10.07;5.90;;;8.70;99.90;;;;;;5052798;28;20083;-75
2024/02/18 03:23:42;;;;;;;9.85;6.13;;;8.70;99.90;;;;;;5052100;28;20433;-76
2024/02/18 03:26:08;;;;;;;10.75;6.85;;;8.60;99.90;;;;;;5052782;28;20366;-75
2024/02/18 03:28:34;;;;;;;9.85;5.80;;;8.60;99.90;;;;;;5052019;28;20059;-76
2024/02/18 03:31:00;;;;;;;9.85;6.13;;;8.60;99.90;;;;;;5052603;28;20060;-75
2024/02/18 03:33:25;;;;;;;10.27;6.25;;;8.60;99.90;;;;;;5052304;28;20124;-75
2024/02/18 03:35:51;;;;;;;9.40;6.03;;;8.60;99.90;;;;;;5051842;28;20126;-75
2024/02/18 03:38:17;;;;;;;13.32;6.30;;;8.60;99.90;;;;;;5052384;28;20458;-74
2024/02/18 03:40:42;;;;;;;11.95;6.65;;;8.60;99.90;;;;;;5052599;28;20454;-74
2024/02/18 03:43:08;;;;;;;12.13;6.15;;;8.60;99.90;;;;;;5053472;28;20056;-75
2024/02/18 03:45:34;;;;;;;13.15;6.18;;;8.60;99.90;;;;;;5052521;28;20351;-75
2024/02/18 03:47:59;;;;;;;13.10;6.75;;;8.50;99.90;;;;;;5051537;28;20492;-75
2024/02/18 03:50:25;;;;;;;10.25;5.90;;;8.50;99.90;;;;;;5053365;28;20060;-75
2024/02/18 03:52:51;;;;;;;10.88;6.32;;;8.50;99.90;;;;;;5051318;28;20037;-75
2024/02/18 03:55:16;;;;;;;15.00;6.90;;;8.50;99.90;;;;;;5053280;28;20029;-75
2024/02/18 03:57:42;;;;;;;9.93;6.75;;;8.50;99.90;;;;;;5051354;28;20457;-75
2024/02/18 04:00:10;;;;;;;11.20;6.72;;;8.50;99.90;;;;;;5052139;28;20414;-75
2024/02/18 04:02:38;;;;;;;12.02;6.72;;;8.50;99.90;;;;;;5052571;28;20057;-75
2024/02/18 04:05:11;;;;;;;12.18;6.85;;;8.50;99.90;;;;;;5068651;28;20056;-75
2024/02/18 04:07:37;;;;;;;11.38;7.03;;;8.50;99.90;;;;;;5052430;28;20063;-75
2024/02/18 04:10:05;;;;;;;13.52;7.00;;;8.50;99.90;;;;;;5068685;28;20468;-75
2024/02/18 04:12:31;;;;;;;11.30;6.53;;;8.50;99.90;;;;;;5052695;28;20109;-76
2024/02/18 04:14:57;;;;;;;10.40;6.68;;;8.40;99.90;;;;;;5052263;28;20266;-75
2024/02/18 04:17:24;;;;;;;12.32;6.88;;;8.40;99.90;;;;;;5068482;28;20029;-75
2024/02/18 04:19:49;;;;;;;12.88;6.70;;;8.50;99.90;;;;;;5052710;28;20052;-75
2024/02/18 04:22:15;;;;;;;10.15;6.35;;;8.50;99.90;;;;;;5052785;28;20052;-75
2024/02/18 04:24:40;;;;;;;12.10;6.82;;;8.50;99.90;;;;;;5050903;28;20433;-75
2024/02/18 04:27:10;;;;;;;11.80;7.68;;;8.50;99.90;;;;;;5053077;28;20024;-74
2024/02/18 04:29:39;;;;;;;10.25;6.38;;;8.50;99.90;;;;;;5067511;28;20028;-76
2024/02/18 04:32:05;;;;;;;13.25;7.25;;;8.50;99.90;;;;;;5068035;28;20028;-74
2024/02/18 04:34:31;;;;;;;11.20;7.05;;;8.50;99.90;;;;;;5052536;28;20028;-74
2024/02/18 04:36:57;;;;;;;11.77;7.10;;;8.40;99.90;;;;;;5051960;28;20029;-74
2024/02/18 04:39:23;;;;;;;12.02;6.90;;;8.40;99.90;;;;;;5051656;28;20032;-74
2024/02/18 04:41:49;;;;;;;12.40;6.45;;;8.40;99.90;;;;;;5067087;28;20454;-74
2024/02/18 04:44:15;;;;;;;11.73;6.63;;;8.40;99.90;;;;;;5051194;28;20039;-74
2024/02/18 04:46:41;;;;;;;9.63;6.35;;;8.30;99.90;;;;;;5050577;28;20048;-75
2024/02/18 04:49:06;;;;;;;9.98;6.22;;;8.30;99.90;;;;;;5051195;28;20061;-74
2024/02/18 04:51:32;;;;;;;12.05;6.55;;;8.30;99.90;;;;;;5052421;28;20384;-74
2024/02/18 04:53:57;;;;;;;12.90;6.57;;;8.30;99.90;;;;;;5050365;28;20143;-74
2024/02/18 04:56:23;;;;;;;12.82;6.60;;;8.20;99.90;;;;;;5051152;28;20032;-74
2024/02/18 04:58:48;;;;;;;10.77;6.85;;;8.30;99.90;;;;;;5057089;28;20040;-74
2024/02/18 05:01:14;;;;;;;11.98;7.18;;;8.30;99.90;;;;;;5058906;28;20021;-74
2024/02/18 05:03:41;;;;;;;10.98;6.75;;;8.20;99.90;;;;;;5058444;28;20040;-75
2024/02/18 05:06:11;;;;;;;14.80;6.95;;;8.30;99.90;;;;;;5057638;28;20061;-75
2024/02/18 05:08:37;;;;;;;13.07;7.07;;;8.30;99.90;;;;;;5074363;28;20021;-75
2024/02/18 05:11:03;;;;;;;11.68;6.85;;;8.20;99.90;;;;;;5058496;28;20091;-74
2024/02/18 05:13:29;;;;;;;15.18;6.45;;;8.30;99.90;;;;;;5058974;28;20454;-74
2024/02/18 05:15:56;;;;;;;8.57;6.05;;;8.20;99.90;;;;;;5056735;28;20033;-75
2024/02/18 05:18:21;;;;;;;12.23;6.35;;;8.20;99.90;;;;;;5057491;28;20020;-74
2024/02/18 05:20:47;;;;;;;12.63;6.47;;;8.20;99.90;;;;;;5058190;28;20086;-75
2024/02/18 05:23:13;;;;;;;10.93;6.07;;;8.20;99.90;;;;;;5058797;28;20108;-74
2024/02/18 05:25:39;;;;;;;13.13;6.20;;;8.20;99.90;;;;;;5057655;28;20025;-75
2024/02/18 05:28:08;;;;;;;11.27;5.70;;;8.20;99.90;;;;;;5074225;28;20032;-75
2024/02/18 05:30:34;;;;;;;10.02;5.60;;;8.20;99.90;;;;;;5058777;28;20033;-75
2024/02/18 05:33:01;;;;;;;11.57;5.88;;;8.20;99.90;;;;;;5073517;28;20425;-74
2024/02/18 05:35:27;;;;;;;10.48;5.70;;;8.20;99.90;;;;;;5074331;28;20031;-75
2024/02/18 05:37:52;;;;;;;12.77;6.30;;;8.20;99.90;;;;;;5058086;28;20029;-75
2024/02/18 05:40:18;;;;;;;9.35;5.97;;;8.20;99.90;;;;;;5058745;28;20027;-75
2024/02/18 05:42:44;;;;;;;9.20;5.13;;;8.20;99.90;;;;;;5056694;28;20486;-75
2024/02/18 05:45:10;;;;;;;10.40;5.82;;;8.20;99.90;;;;;;5058731;28;20087;-75
2024/02/18 05:47:36;;;;;;;10.02;5.43;;;8.20;99.90;;;;;;5074183;28;20048;-76
2024/02/18 05:50:02;;;;;;;8.80;4.82;;;8.20;99.90;;;;;;5058082;28;20075;-75
2024/02/18 05:52:27;;;;;;;8.70;4.90;;;8.10;99.90;;;;;;5057357;28;20029;-75
2024/02/18 05:54:53;;;;;;;8.48;4.82;;;8.10;99.90;;;;;;5057977;28;20037;-76
2024/02/18 05:57:18;;;;;;;8.77;4.50;;;8.10;99.90;;;;;;5058170;28;20116;-75
2024/02/18 05:59:44;;;;;;;6.72;4.30;;;8.10;99.90;;;;;;5057974;28;20021;-76
2024/02/18 06:02:10;;;;;;;7.28;3.80;;;8.10;99.90;;;;;;5057254;28;20028;-75
2024/02/18 06:04:35;;;;;;;7.30;3.75;;;8.10;99.90;;;;;;5057231;28;20029;-75
2024/02/18 06:07:01;;;;;;;8.02;3.60;;;8.10;99.90;;;;;;5058120;28;20056;-75
2024/02/18 06:09:26;;;;;;;6.13;3.42;;;8.10;99.90;;;;;;5054814;28;20143;-74
2024/02/18 06:11:52;;;;;;;5.90;3.22;;;8.10;99.90;;;;;;5054210;28;20428;-75
2024/02/18 06:14:19;;;;;;;6.30;3.53;;;8.10;99.90;;;;;;5055196;28;20033;-75
2024/02/18 06:16:44;;;;;;;7.55;3.53;;;8.10;99.90;;;;;;5054570;28;20066;-75
2024/02/18 06:19:10;;;;;;;4.82;3.35;;;8.00;99.90;;;;;;5053842;28;20025;-75
2024/02/18 06:21:36;;;;;;;6.15;3.10;;;8.10;99.90;;;;;;5055078;28;20036;-75
2024/02/18 06:24:02;;;;;;;4.07;2.92;;;8.10;99.90;;;;;;5054140;28;20352;-75
2024/02/18 06:26:28;;;;;;;5.82;3.30;;;8.00;99.90;;;;;;5070358;28;20359;-75
2024/02/18 06:28:56;;;;;;;6.00;3.22;;;8.00;99.90;;;;;;5054385;28;20132;-75
2024/02/18 06:31:22;;;;;;;6.18;3.10;;;8.00;99.90;;;;;;5053755;28;20029;-75
2024/02/18 06:33:48;;;;;;;3.13;2.50;;;8.00;99.90;;;;;;5053846;28;20104;-75
2024/02/18 06:36:14;;;;;;;3.58;2.38;;;8.00;99.90;;;;;;5053608;28;20025;-75
2024/02/18 06:38:44;;;;;;;5.75;3.50;;;8.00;99.90;;;;;;5054751;28;20478;-75
2024/02/18 06:41:10;;;;;;;5.82;2.65;;;8.00;99.90;;;;;;5070008;28;20149;-75
2024/02/18 06:43:36;;;;;;;4.95;2.60;;;7.90;99.90;;;;;;5069981;28;20064;-75
2024/02/18 06:46:01;;;;;;;4.13;2.80;;;8.00;99.90;;;;;;5052844;28;20029;-75
2024/02/18 06:48:27;;;;;;;7.60;2.67;;;8.00;99.90;;;;;;5054261;28;20041;-75
2024/02/18 06:50:53;;;;;;;7.20;3.13;;;8.00;99.90;;;;;;5053941;28;20401;-75
2024/02/18 06:53:18;;;;;;;5.15;3.10;;;8.00;99.90;;;;;;5054492;28;20424;-75
2024/02/18 06:55:44;;;;;;;5.28;2.72;;;8.00;99.90;;;;;;5052954;28;20116;-76
2024/02/18 06:58:11;;;;;;;4.35;3.05;;;7.90;99.90;;;;;;5054346;28;20025;-75
2024/02/18 07:00:37;;;;;;;5.80;2.92;;;8.00;99.90;;;;;;5069766;28;20608;-74
2024/02/18 07:03:06;;;;;;;7.35;3.20;;;8.00;99.90;;;;;;5069179;28;20029;-75
2024/02/18 07:05:31;;;;;;;3.72;2.88;;;8.10;99.90;;;;;;5053161;28;20032;-75
2024/02/18 07:07:57;;;;;;;5.25;2.97;;;8.10;99.90;;;;;;5052496;28;20033;-75
2024/02/18 07:10:23;;;;;;;4.97;3.38;;;8.20;99.90;;;;;;5052872;28;20033;-75
2024/02/18 07:12:48;;;;;;;4.85;2.75;;;8.30;99.90;;;;;;5052305;28;20033;-76
2024/02/18 07:15:14;;;;;;;4.82;3.03;;;8.30;99.90;;;;;;5052281;28;20033;-75
2024/02/18 07:17:40;;;;;;;5.80;2.60;;;8.40;99.90;;;;;;5052693;28;20035;-76
2024/02/18 07:20:07;;;;;;;4.40;3.17;;;8.40;99.90;;;;;;5053191;28;20051;-76
2024/02/18 07:22:33;;;;;;;3.75;2.58;;;8.40;99.90;;;;;;5052561;28;20029;-76
2024/02/18 07:24:59;;;;;;;4.60;2.85;;;8.50;99.90;;;;;;5052899;28;20090;-75
2024/02/18 07:27:25;;;;;;;6.45;3.30;;;8.60;99.90;;;;;;5053508;28;20028;-75
2024/02/18 07:29:50;;;;;;;7.35;2.75;;;8.60;99.90;;;;;;5051508;28;20438;-74
2024/02/18 07:32:16;;;;;;;5.00;3.08;;;8.50;99.90;;;;;;5053117;28;20453;-75
2024/02/18 07:34:41;;;;;;;4.88;3.42;;;8.50;99.90;;;;;;5053398;28;20068;-75
2024/02/18 07:37:07;;;;;;;4.40;2.90;;;8.50;99.90;;;;;;5052856;28;20485;-75
2024/02/18 07:39:33;;;;;;;6.57;3.50;;;8.50;99.90;;;;;;5053774;28;20029;-75
2024/02/18 07:41:58;;;;;;;5.60;3.72;;;8.50;99.90;;;;;;5051343;28;20068;-75
2024/02/18 07:44:24;;;;;;;6.63;3.30;;;8.50;99.90;;;;;;5049056;28;20435;-75
2024/02/18 07:46:50;;;;;;;6.25;3.70;;;8.60;99.90;;;;;;5052349;28;20450;-75
2024/02/18 07:49:16;;;;;;;8.25;3.53;;;8.60;99.90;;;;;;5052765;28;20036;-75
2024/02/18 07:51:42;;;;;;;6.20;3.50;;;8.60;99.90;;;;;;5053121;28;20107;-75
2024/02/18 07:54:08;;;;;;;7.05;3.33;;;8.70;99.90;;;;;;5051684;28;20060;-75
2024/02/18 07:56:44;;;;;;;6.32;3.75;;;8.80;99.90;;;;;;5069623;28;20099;-74
2024/02/18 07:59:14;;;;;;;9.18;4.82;;;8.80;99.90;;;;;;5051857;28;20028;-76
2024/02/18 08:01:39;;;;;;;8.05;4.38;;;8.90;99.90;;;;;;5068465;28;20025;-75
2024/02/18 08:04:05;;;;;;;8.65;4.05;;;8.80;99.90;;;;;;5067934;28;20028;-75
2024/02/18 08:06:32;;;;;;;11.82;4.68;;;8.90;99.90;;;;;;5068401;28;20025;-76
2024/02/18 08:08:58;;;;;;;8.00;4.50;;;9.00;99.90;;;;;;5067756;28;20124;-77
2024/02/18 08:11:23;;;;;;;6.65;3.97;;;9.00;99.90;;;;;;5068399;28;20027;-76
2024/02/18 08:13:49;;;;;;;7.53;4.25;;;9.10;99.90;;;;;;5052251;28;20025;-75
2024/02/18 08:16:15;;;;;;;8.93;4.35;;;9.10;99.90;;;;;;5051594;28;20029;-75
2024/02/18 08:18:40;;;;;;;7.70;4.45;;;9.00;99.90;;;;;;5068145;28;20029;-76
2024/02/18 08:21:06;;;;;;;9.88;4.93;;;9.00;99.90;;;;;;5050975;28;20386;-76
2024/02/18 08:23:32;;;;;;;8.93;4.63;;;9.10;99.90;;;;;;5051241;28;20033;-76
2024/02/18 08:25:57;;;;;;;8.50;4.85;;;9.10;99.90;;;;;;5052112;28;20054;-75
2024/02/18 08:28:23;;;;;;;11.20;5.07;;;9.20;99.90;;;;;;5052738;28;20032;-75
2024/02/18 08:30:49;;;;;;;7.53;4.25;;;9.30;99.90;;;;;;5067157;28;20116;-76
2024/02/18 08:33:15;;;;;;;7.40;4.70;;;9.30;99.90;;;;;;5050791;28;20090;-75
2024/02/18 08:35:41;;;;;;;11.85;4.88;;;9.40;99.90;;;;;;5052594;28;20025;-75
2024/02/18 08:38:07;;;;;;;7.97;5.00;;;9.40;99.90;;;;;;5051820;28;20557;-75
2024/02/18 08:40:32;;;;;;;11.00;5.10;;;9.40;99.90;;;;;;5051216;28;20056;-75
2024/02/18 08:42:58;;;;;;;8.50;4.60;;;9.40;99.90;;;;;;5051589;28;20053;-75
2024/02/18 08:45:23;;;;;;;7.43;4.53;;;9.50;99.90;;;;;;5067776;28;20029;-75
2024/02/18 08:47:49;;;;;;;8.93;4.50;;;9.50;99.90;;;;;;5050604;28;20028;-76
2024/02/18 08:50:15;;;;;;;7.82;4.47;;;9.60;99.90;;;;;;5051045;28;20482;-76
2024/02/18 08:52:40;;;;;;;8.05;4.00;;;9.70;99.90;;;;;;5051334;28;20029;-76
2024/02/18 08:55:06;;;;;;;9.10;4.10;;;9.70;99.90;;;;;;5067099;28;20061;-75
2024/02/18 08:57:32;;;;;;;5.25;3.47;;;9.70;99.90;;;;;;5050291;28;20090;-73
2024/02/18 09:00:02;;;;;;;7.15;4.35;;;9.70;99.90;;;;;;5051469;28;20036;-74
2024/02/18 09:02:27;;;;;;;7.97;3.72;;;9.70;99.90;;;;;;5051831;28;20436;-74
2024/02/18 09:04:53;;;;;;;6.75;4.15;;;9.80;99.90;;;;;;5066851;28;20120;-75
2024/02/18 09:07:19;;;;;;;7.82;4.20;;;9.90;99.90;;;;;;5067228;28;20032;-75
2024/02/18 09:09:45;;;;;;;6.60;4.28;;;10.00;99.90;;;;;;5051942;28;20100;-74
2024/02/18 09:12:10;;;;;;;7.22;4.53;;;10.00;99.90;;;;;;5051800;28;20102;-75
2024/02/18 09:14:36;;;;;;;9.30;4.60;;;10.10;99.90;;;;;;5050387;28;20470;-75
2024/02/18 09:17:02;;;;;;;10.00;5.05;;;10.10;99.90;;;;;;5051159;28;20029;-75
2024/02/18 09:19:27;;;;;;;11.35;5.13;;;10.10;99.90;;;;;;5052133;28;20083;-76
2024/02/18 09:21:53;;;;;;;8.73;5.30;;;10.10;99.90;;;;;;5051618;28;20049;-76
2024/02/18 09:24:19;;;;;;;8.07;4.70;;;10.10;99.90;;;;;;5049739;28;20084;-77
2024/02/18 09:26:45;;;;;;;8.88;4.93;;;10.10;99.90;;;;;;5052107;28;20454;-76
2024/02/18 09:29:10;;;;;;;10.48;5.70;;;10.10;99.90;;;;;;5050264;28;20108;-76
2024/02/18 09:31:37;;;;;;;9.93;5.18;;;10.20;99.90;;;;;;5050810;28;20075;-76
2024/02/18 09:34:03;;;;;;;16.55;5.68;;;10.20;99.90;;;;;;5050277;28;20470;-77
2024/02/18 09:36:29;;;;;;;10.88;4.75;;;10.30;99.90;;;;;;5051881;28;20025;-77
2024/02/18 09:38:54;;;;;;;8.90;5.20;;;10.30;99.90;;;;;;5049977;28;20078;-76
2024/02/18 09:41:23;;;;;;;7.93;5.13;;;10.40;99.90;;;;;;5050691;28;20043;-76
2024/02/18 09:43:53;;;;;;;7.60;4.75;;;10.50;99.90;;;;;;5052019;28;20087;-76
2024/02/18 09:46:20;;;;;;;8.90;5.00;;;10.50;99.90;;;;;;5054266;28;20024;-77
2024/02/18 09:48:46;;;;;;;9.43;4.93;;;10.60;99.90;;;;;;5056234;28;20027;-77
2024/02/18 09:51:13;;;;;;;8.57;5.15;;;10.60;99.90;;;;;;5053930;28;20029;-76
2024/02/18 09:53:39;;;;;;;9.77;4.65;;;10.60;99.90;;;;;;5055742;28;20039;-77
2024/02/18 09:56:06;;;;;;;8.77;4.90;;;10.60;99.90;;;;;;5054237;28;20025;-77
2024/02/18 09:58:32;;;;;;;7.82;4.85;;;10.70;99.90;;;;;;5054482;28;20036;-77
2024/02/18 10:01:00;;;;;;;7.05;4.25;;;10.70;99.90;;;;;;5053658;28;20025;-77
2024/02/18 10:03:27;;;;;;;6.85;4.65;;;10.80;99.90;;;;;;5055286;28;20033;-78
2024/02/18 10:05:52;;;;;;;7.82;5.35;;;10.80;99.90;;;;;;5055022;28;20021;-75
2024/02/18 10:08:18;;;;;;;9.20;4.32;;;10.80;99.90;;;;;;5070975;28;20079;-75
2024/02/18 10:10:44;;;;;;;7.97;4.32;;;10.90;99.90;;;;;;5055784;28;20032;-77
2024/02/18 10:13:10;;;;;;;7.18;3.80;;;10.90;99.90;;;;;;5054394;28;20067;-75
2024/02/18 10:15:36;;;;;;;5.95;4.05;;;10.90;99.90;;;;;;5055173;28;20064;-76
2024/02/18 10:18:09;;;;;;;7.65;3.95;;;11.00;99.90;;;;;;5070176;28;20025;-81
2024/02/18 10:20:35;;;;;;;7.20;4.05;;;10.90;99.90;;;;;;5055197;28;20021;-75
2024/02/18 10:23:01;;;;;;;8.52;3.97;;;11.00;99.90;;;;;;5054683;28;20033;-77
2024/02/18 10:25:26;;;;;;;7.72;3.97;;;11.10;99.90;;;;;;5053931;28;20025;-75
2024/02/18 10:27:59;;;;;;;7.80;4.10;;;11.00;99.90;;;;;;5070005;28;20489;-77
2024/02/18 10:30:25;;;;;;;6.45;4.07;;;11.00;99.90;;;;;;5054717;28;20025;-77
2024/02/18 10:32:50;;;;;;;8.15;4.22;;;11.10;99.90;;;;;;5054248;28;20086;-76
2024/02/18 10:35:16;;;;;;;10.18;4.00;;;11.10;99.90;;;;;;5053842;28;20036;-76
2024/02/18 10:37:43;;;;;;;7.72;4.15;;;11.10;99.90;;;;;;5053869;28;20531;-77
2024/02/18 10:40:08;;;;;;;8.35;4.25;;;11.20;99.90;;;;;;5054378;28;20032;-75
2024/02/18 10:42:38;;;;;;;7.15;4.00;;;11.20;99.90;;;;;;5053077;28;20045;-75
2024/02/18 10:45:06;;;;;;;6.78;3.85;;;11.20;99.90;;;;;;5068110;28;20451;-75
2024/02/18 10:47:38;;;;;;;5.40;3.30;;;11.20;99.90;;;;;;5052455;28;20139;-75
2024/02/18 10:50:06;;;;;;;6.03;3.50;;;11.30;99.90;;;;;;5037768;28;20021;-76
2024/02/18 10:53:07;;;;;;;6.40;3.95;;;11.20;99.90;;;;;;5052562;28;20029;-75
2024/02/18 10:55:42;;;;;;;7.82;3.63;;;11.20;99.90;;;;;;5067052;28;20032;-75
2024/02/18 10:58:26;;;;;;;6.32;3.97;;;11.20;99.90;;;;;;5044109;28;20555;-75
2024/02/18 11:00:57;;;;;;;6.40;3.58;;;11.30;99.90;;;;;;5052900;28;20390;-74
2024/02/18 11:03:47;;;;;;;5.07;3.10;;;11.30;99.90;;;;;;5054129;28;20022;-75
2024/02/18 11:06:13;;;;;;;5.88;3.50;;;11.30;99.90;;;;;;5038193;28;20444;-75
2024/02/18 11:08:40;;;;;;;5.47;3.30;;;11.30;99.90;;;;;;5052721;28;20029;-75
2024/02/18 11:11:09;;;;;;;8.18;3.70;;;11.40;99.90;;;;;;5053179;28;20481;-75
2024/02/18 11:13:35;;;;;;;6.15;3.72;;;11.30;99.90;;;;;;5052336;28;20136;-74
2024/02/18 11:16:01;;;;;;;7.13;3.47;;;11.40;99.90;;;;;;5053035;28;20067;-76
2024/02/18 11:18:31;;;;;;;4.80;3.20;;;11.40;99.90;;;;;;5052069;28;20025;-74
2024/02/18 11:20:57;;;;;;;7.95;3.60;;;11.50;99.90;;;;;;5052931;28;20096;-75
2024/02/18 11:23:23;;;;;;;5.43;3.30;;;11.40;99.90;;;;;;5052314;28;20029;-75
2024/02/18 11:25:50;;;;;;;7.22;3.53;;;11.50;99.90;;;;;;5053438;28;20131;-75
2024/02/18 11:28:17;;;;;;;7.28;3.40;;;11.40;99.90;;;;;;5068967;28;20025;-75
2024/02/18 11:30:43;;;;;;;5.47;3.38;;;11.50;99.90;;;;;;5051261;28;20060;-75
2024/02/18 11:33:08;;;;;;;4.90;3.10;;;11.50;99.90;;;;;;5051469;28;20057;-75
2024/02/18 11:35:34;;;;;;;5.35;3.42;;;11.50;99.90;;;;;;5053674;28;20021;-76
2024/02/18 11:38:01;;;;;;;6.25;3.60;;;11.60;99.90;;;;;;5068269;28;20020;-76
2024/02/18 11:40:28;;;;;;;6.85;3.63;;;11.60;99.90;;;;;;5052124;28;20017;-76
2024/02/18 11:42:54;;;;;;;5.80;3.55;;;11.60;99.90;;;;;;5051038;28;20053;-75
2024/02/18 11:45:21;;;;;;;5.25;3.38;;;11.60;99.90;;;;;;5068912;28;20041;-75
2024/02/18 11:47:51;;;;;;;9.35;3.72;;;11.60;99.90;;;;;;5053721;28;20488;-76
2024/02/18 11:50:19;;;;;;;5.57;3.90;;;11.50;99.90;;;;;;5051872;28;20032;-75
2024/02/18 11:52:46;;;;;;;8.70;3.80;;;11.50;99.90;;;;;;5051968;28;20410;-76
2024/02/18 11:55:12;;;;;;;8.35;3.60;;;11.50;99.90;;;;;;5051256;28;20037;-76
2024/02/18 11:57:38;;;;;;;6.68;3.88;;;11.50;99.90;;;;;;5052971;28;20088;-76
2024/02/18 12:00:05;;;;;;;6.28;3.72;;;11.50;99.90;;;;;;5052383;28;20023;-76
2024/02/18 12:02:30;;;;;;;7.13;4.03;;;11.60;99.90;;;;;;5053248;28;20401;-75
2024/02/18 12:04:57;;;;;;;5.78;3.60;;;11.60;99.90;;;;;;5052292;28;20035;-75
2024/02/18 12:07:24;;;;;;;7.78;3.40;;;11.60;99.90;;;;;;5051007;28;20085;-75
2024/02/18 12:09:49;;;;;;;7.25;3.78;;;11.60;99.90;;;;;;5051200;28;20021;-76
2024/02/18 12:12:15;;;;;;;7.97;3.40;;;11.60;99.90;;;;;;5052866;28;20035;-75
2024/02/18 12:14:51;;;;;;;6.82;3.70;;;11.60;99.90;;;;;;5052872;28;20075;-75
2024/02/18 12:17:18;;;;;;;8.45;3.38;;;11.70;99.90;;;;;;5068291;28;20064;-76
2024/02/18 12:19:45;;;;;;;8.30;3.80;;;11.70;99.90;;;;;;5051584;28;20528;-76
2024/02/18 12:22:27;;;;;;;6.10;3.92;;;11.80;99.90;;;;;;5051005;28;20035;-75
2024/02/18 12:24:54;;;;;;;6.47;3.55;;;11.80;99.90;;;;;;5052391;28;20051;-75
2024/02/18 12:27:21;;;;;;;7.00;3.70;;;11.80;99.90;;;;;;5052760;28;20017;-76
2024/02/18 12:29:48;;;;;;;7.65;4.45;;;11.80;99.90;;;;;;5051726;28;20025;-76
2024/02/18 12:32:14;;;;;;;9.95;3.75;;;11.80;99.90;;;;;;5052193;28;20114;-76
2024/02/18 12:34:41;;;;;;;8.20;4.07;;;11.80;99.90;;;;;;5051444;28;20465;-76
2024/02/18 12:37:08;;;;;;;8.15;3.83;;;11.80;99.90;;;;;;5067633;28;20036;-75
2024/02/18 12:39:34;;;;;;;8.30;4.28;;;11.80;99.90;;;;;;5051252;28;20036;-76
2024/02/18 12:42:00;;;;;;;8.27;4.18;;;11.80;99.90;;;;;;5067110;28;20024;-76
2024/02/18 12:44:26;;;;;;;7.85;4.40;;;11.70;99.90;;;;;;5068022;28;20110;-76
2024/02/18 12:46:56;;;;;;;6.80;4.47;;;11.80;99.90;;;;;;5050452;28;20087;-76
2024/02/18 12:49:22;;;;;;;8.48;4.00;;;11.80;99.90;;;;;;5067497;28;20021;-75